Tessalit, Mali
Current Conditions -  °F | °C
As of 4:00 PM on Thursday 29 Jan 2015 (Local Time) from DAAT Reporting Station
Clear Clear  
Wind Chill: 63°   Ceiling: Unl
Heat Index: 63°   Visibility: 6mi
Dew Point:   Wind: 13mph
Humidity: 11%   Direction: 300°WNW
Pressure: 30.12"   Gusts: NA
Location:  20.28°N, 0.98°E
Report Text: DAAT 291600Z 30011KT CAVOK 17/M14 Q1020
Loading
Personal Weather Stations






























Interactive Weather Map New forecast layout! Learn more

10-Day Weather Forecast

Advertisements
Track Severe Weather on mobile